Time;durP1;ratioP1;P1;durP2;ratioP2;P2;SDS_P1;SDS_P2;PMS_P1;PMS_P2;Temp;Humidity;BMP_temperature;BMP_pressure;BME280_temperature;BME280_humidity;BME280_pressure;Samples;Min_cycle;Max_cycle;Signal;HPM_P1;HPM_P2
2023/12/11 00:01:02;;;;;;;1.30;0.97;;;10.40;99.90;;;;;;5112756;28;20226;-70
2023/12/11 00:03:28;;;;;;;1.67;1.00;;;10.30;99.90;;;;;;5113223;28;20455;-70
2023/12/11 00:05:53;;;;;;;1.63;1.00;;;10.40;99.90;;;;;;5091283;28;20416;-70
2023/12/11 00:08:19;;;;;;;2.00;0.80;;;10.40;99.90;;;;;;5092594;28;20174;-70
2023/12/11 00:10:44;;;;;;;1.63;0.93;;;10.50;99.90;;;;;;5092778;28;20708;-69
2023/12/11 00:13:10;;;;;;;1.47;0.70;;;10.50;99.90;;;;;;5092558;28;20273;-70
2023/12/11 00:15:36;;;;;;;3.00;1.00;;;10.50;99.90;;;;;;5101484;28;20267;-70
2023/12/11 00:18:02;;;;;;;1.73;0.97;;;10.50;99.90;;;;;;5112978;28;20171;-70
2023/12/11 00:20:27;;;;;;;2.20;1.00;;;10.50;99.90;;;;;;5112190;28;20422;-70
2023/12/11 00:22:54;;;;;;;3.23;0.73;;;10.50;99.90;;;;;;5091549;28;20630;-70
2023/12/11 00:25:19;;;;;;;1.43;0.80;;;10.50;99.90;;;;;;5099032;28;20223;-69
2023/12/11 00:27:45;;;;;;;1.93;1.53;;;10.50;99.90;;;;;;5113077;28;20409;-69
2023/12/11 00:30:11;;;;;;;1.20;0.80;;;10.50;99.90;;;;;;5094489;28;20188;-70
2023/12/11 00:32:37;;;;;;;5.20;1.00;;;10.40;99.90;;;;;;5113050;28;20198;-69
2023/12/11 00:35:02;;;;;;;2.57;1.20;;;10.40;99.90;;;;;;5108816;28;20488;-70
2023/12/11 00:37:28;;;;;;;1.77;1.00;;;10.50;99.90;;;;;;5092715;28;20199;-71
2023/12/11 00:39:54;;;;;;;1.30;0.80;;;10.40;99.90;;;;;;5092622;28;20438;-71
2023/12/11 00:42:19;;;;;;;1.77;1.07;;;10.60;99.90;;;;;;5094492;28;20684;-71
2023/12/11 00:44:45;;;;;;;2.80;1.10;;;10.60;99.90;;;;;;5097930;28;20612;-70
2023/12/11 00:47:10;;;;;;;2.50;0.80;;;10.60;99.90;;;;;;5116289;28;20170;-70
2023/12/11 00:49:36;;;;;;;1.30;0.90;;;10.70;99.90;;;;;;5116180;28;20195;-70
2023/12/11 00:52:02;;;;;;;1.47;0.93;;;10.70;99.90;;;;;;5112958;28;20187;-69
2023/12/11 00:54:27;;;;;;;0.90;0.70;;;10.80;99.90;;;;;;5116658;28;20165;-70
2023/12/11 00:56:53;;;;;;;1.20;0.83;;;10.90;99.90;;;;;;5096499;28;20552;-70
2023/12/11 00:59:19;;;;;;;1.07;0.83;;;10.90;99.90;;;;;;5095733;28;20217;-70
2023/12/11 01:01:44;;;;;;;1.77;0.83;;;11.00;99.90;;;;;;5095739;28;20215;-71
2023/12/11 01:04:12;;;;;;;2.00;1.27;;;11.10;99.90;;;;;;5096059;28;20173;-71
2023/12/11 01:06:37;;;;;;;1.77;0.77;;;11.10;99.90;;;;;;5112960;28;20208;-70
2023/12/11 01:09:03;;;;;;;2.13;0.97;;;11.30;99.90;;;;;;5116244;28;20439;-71
2023/12/11 01:11:28;;;;;;;1.17;0.80;;;11.20;99.90;;;;;;5115877;28;20186;-71
2023/12/11 01:13:54;;;;;;;2.30;0.87;;;11.20;99.90;;;;;;5115918;28;20171;-71
2023/12/11 01:16:20;;;;;;;1.90;0.97;;;11.20;99.90;;;;;;5101399;28;20192;-71
2023/12/11 01:18:46;;;;;;;3.00;1.20;;;11.20;99.90;;;;;;5095543;28;20170;-71
2023/12/11 01:21:11;;;;;;;1.43;0.70;;;11.20;99.90;;;;;;5094018;28;20420;-71
2023/12/11 01:23:37;;;;;;;2.60;0.73;;;11.30;99.90;;;;;;5095428;28;20165;-70
2023/12/11 01:26:03;;;;;;;1.93;1.17;;;11.10;99.90;;;;;;5106949;28;20168;-71
2023/12/11 01:28:28;;;;;;;1.73;0.87;;;11.00;99.90;;;;;;5115735;28;20539;-70
2023/12/11 01:30:54;;;;;;;1.43;0.70;;;11.00;99.90;;;;;;5115551;28;20422;-71
2023/12/11 01:33:20;;;;;;;1.47;0.90;;;11.10;99.90;;;;;;5115365;28;20573;-71
2023/12/11 01:35:45;;;;;;;1.93;0.80;;;11.10;99.90;;;;;;5105866;28;20196;-71
2023/12/11 01:38:11;;;;;;;1.40;0.73;;;11.10;99.90;;;;;;5095098;28;20539;-71
2023/12/11 01:40:36;;;;;;;1.47;0.70;;;11.10;99.90;;;;;;5094905;28;20177;-71
2023/12/11 01:43:15;;;;;;;1.20;0.80;;;11.10;99.90;;;;;;5094695;28;20169;-71
2023/12/11 01:45:41;;;;;;;1.03;0.70;;;10.90;99.90;;;;;;5103310;28;20755;-71
2023/12/11 01:48:09;;;;;;;1.90;0.70;;;11.00;99.90;;;;;;5115002;28;20481;-71
2023/12/11 01:50:35;;;;;;;1.00;0.63;;;11.10;99.90;;;;;;5114383;28;20601;-71
2023/12/11 01:53:01;;;;;;;0.80;0.50;;;11.10;99.90;;;;;;5095183;28;20540;-70
2023/12/11 01:55:28;;;;;;;1.43;0.70;;;11.10;99.90;;;;;;5101026;28;20813;-71
2023/12/11 01:57:54;;;;;;;1.10;0.70;;;11.10;99.90;;;;;;5114754;28;20406;-71
2023/12/11 02:00:19;;;;;;;1.30;0.70;;;11.40;99.90;;;;;;5114532;28;20447;-71
2023/12/11 02:02:45;;;;;;;1.00;0.60;;;11.50;99.90;;;;;;5115151;28;20800;-71
2023/12/11 02:05:11;;;;;;;1.20;0.73;;;11.50;99.90;;;;;;5110579;28;20250;-71
2023/12/11 02:07:38;;;;;;;0.80;0.60;;;11.60;99.90;;;;;;5094125;28;20166;-70
2023/12/11 02:10:05;;;;;;;0.97;0.60;;;11.40;99.90;;;;;;5094552;28;20186;-70
2023/12/11 02:12:31;;;;;;;0.90;0.60;;;11.50;99.90;;;;;;5094144;28;20403;-71
2023/12/11 02:14:57;;;;;;;1.10;0.80;;;11.50;99.90;;;;;;5095872;28;20457;-71
2023/12/11 02:17:22;;;;;;;0.80;0.50;;;11.50;99.90;;;;;;5114374;28;20653;-71
2023/12/11 02:19:48;;;;;;;0.80;0.50;;;11.50;99.90;;;;;;5114358;28;20162;-71
2023/12/11 02:22:14;;;;;;;0.90;0.60;;;11.60;99.90;;;;;;5114402;28;20188;-71
2023/12/11 02:24:46;;;;;;;1.97;0.70;;;11.70;99.90;;;;;;5094744;28;20176;-71
2023/12/11 02:27:11;;;;;;;1.43;0.60;;;11.70;99.90;;;;;;5073932;28;20381;-71
2023/12/11 02:29:37;;;;;;;1.10;0.50;;;11.40;99.90;;;;;;5074154;28;20415;-71
2023/12/11 02:32:03;;;;;;;2.73;0.50;;;11.30;99.90;;;;;;5073766;28;20237;-71
2023/12/11 02:34:29;;;;;;;1.77;0.60;;;11.20;99.90;;;;;;5073747;28;20174;-71
2023/12/11 02:36:54;;;;;;;0.70;0.40;;;11.20;99.90;;;;;;5109212;28;20187;-71
2023/12/11 02:39:20;;;;;;;0.80;0.40;;;11.30;99.90;;;;;;5114063;28;20603;-70
2023/12/11 02:41:45;;;;;;;0.80;0.47;;;11.40;99.90;;;;;;5114275;28;20219;-71
2023/12/11 02:44:11;;;;;;;2.23;0.50;;;11.50;99.90;;;;;;5114014;28;20533;-71
2023/12/11 02:46:39;;;;;;;0.70;0.50;;;11.60;99.90;;;;;;5098602;28;20172;-70
2023/12/11 02:49:04;;;;;;;0.70;0.40;;;11.70;99.90;;;;;;5093583;28;20652;-70
2023/12/11 02:51:30;;;;;;;0.90;0.50;;;11.90;99.90;;;;;;5093545;28;20443;-71
2023/12/11 02:53:55;;;;;;;0.90;0.60;;;12.00;99.90;;;;;;5093450;28;20169;-70
2023/12/11 02:56:21;;;;;;;1.20;0.47;;;12.10;99.90;;;;;;5106455;28;20187;-71
2023/12/11 02:58:47;;;;;;;0.77;0.43;;;12.10;99.90;;;;;;5114265;28;20631;-70
2023/12/11 03:01:12;;;;;;;1.17;0.50;;;12.00;99.90;;;;;;5110182;28;20201;-70
2023/12/11 03:03:38;;;;;;;0.77;0.40;;;11.90;99.90;;;;;;5113354;28;20161;-70
2023/12/11 03:06:04;;;;;;;1.00;0.50;;;11.90;99.90;;;;;;5103165;28;20173;-71
2023/12/11 03:08:30;;;;;;;1.33;0.50;;;11.90;99.90;;;;;;5093546;28;20181;-71
2023/12/11 03:10:55;;;;;;;0.83;0.50;;;11.90;99.90;;;;;;5093415;28;20975;-71
2023/12/11 03:13:21;;;;;;;0.90;0.50;;;11.80;99.90;;;;;;5093158;28;20175;-70
2023/12/11 03:15:46;;;;;;;0.70;0.40;;;11.80;99.90;;;;;;5100914;28;20186;-71
2023/12/11 03:18:12;;;;;;;1.00;0.70;;;11.80;99.90;;;;;;5113474;28;20586;-70
2023/12/11 03:20:38;;;;;;;0.80;0.50;;;11.90;99.90;;;;;;5113403;28;20189;-70
2023/12/11 03:23:03;;;;;;;3.23;0.70;;;11.80;99.90;;;;;;5113407;28;20260;-71
2023/12/11 03:25:29;;;;;;;1.50;0.73;;;11.80;99.90;;;;;;5108182;28;20235;-71
2023/12/11 03:27:54;;;;;;;1.20;0.50;;;11.80;99.90;;;;;;5093252;28;20169;-71
2023/12/11 03:30:20;;;;;;;1.20;0.50;;;11.70;99.90;;;;;;5093028;28;20237;-71
2023/12/11 03:32:45;;;;;;;1.13;0.60;;;11.60;99.90;;;;;;5093277;28;20178;-71
2023/12/11 03:35:11;;;;;;;0.90;0.50;;;11.60;99.90;;;;;;5095427;28;20219;-71
2023/12/11 03:37:37;;;;;;;1.50;0.70;;;11.60;99.90;;;;;;5113013;28;20169;-71
2023/12/11 03:40:03;;;;;;;1.53;0.63;;;11.50;99.90;;;;;;5113089;28;20241;-70
2023/12/11 03:42:28;;;;;;;1.37;0.60;;;11.50;99.90;;;;;;5113136;28;20175;-70
2023/12/11 03:44:54;;;;;;;1.20;0.60;;;11.60;99.90;;;;;;5112986;28;20412;-71
2023/12/11 03:47:21;;;;;;;1.47;0.60;;;11.40;99.90;;;;;;5093390;28;20177;-71
2023/12/11 03:49:47;;;;;;;0.90;0.60;;;11.40;99.90;;;;;;5093020;28;20169;-71
2023/12/11 03:52:13;;;;;;;1.20;0.50;;;11.50;99.90;;;;;;5093320;28;20520;-71
2023/12/11 03:54:38;;;;;;;0.70;0.50;;;11.60;99.90;;;;;;5097221;28;20165;-70
2023/12/11 03:57:04;;;;;;;1.13;0.50;;;11.50;99.90;;;;;;5091309;28;20281;-71
2023/12/11 03:59:29;;;;;;;0.70;0.50;;;11.50;99.90;;;;;;5092954;28;20237;-71
2023/12/11 04:01:55;;;;;;;0.70;0.50;;;11.30;99.90;;;;;;5092578;28;20615;-71
2023/12/11 04:04:21;;;;;;;0.87;0.50;;;11.50;99.90;;;;;;5092645;28;20248;-71
2023/12/11 04:06:47;;;;;;;1.10;0.47;;;11.40;99.90;;;;;;5108212;28;20180;-71
2023/12/11 04:09:12;;;;;;;1.47;0.60;;;11.50;99.90;;;;;;5112991;28;20710;-70
2023/12/11 04:11:38;;;;;;;1.30;0.40;;;11.50;99.90;;;;;;5113117;28;20533;-71
2023/12/11 04:14:04;;;;;;;0.90;0.50;;;11.30;99.90;;;;;;5113023;28;20165;-71
2023/12/11 04:16:29;;;;;;;0.70;0.43;;;11.30;99.90;;;;;;5093725;28;20575;-70
2023/12/11 04:18:55;;;;;;;0.73;0.50;;;11.20;99.90;;;;;;5096463;28;20166;-71
2023/12/11 04:21:21;;;;;;;0.70;0.50;;;11.20;99.90;;;;;;5096350;28;20208;-70
2023/12/11 04:23:46;;;;;;;2.20;0.50;;;11.10;99.90;;;;;;5096254;28;20205;-71
2023/12/11 04:26:13;;;;;;;0.90;0.53;;;11.00;99.90;;;;;;5106733;28;20259;-70
2023/12/11 04:28:39;;;;;;;0.80;0.50;;;11.00;99.90;;;;;;5116591;28;20627;-71
2023/12/11 04:31:05;;;;;;;0.70;0.50;;;11.00;99.90;;;;;;5116711;28;20438;-71
2023/12/11 04:33:32;;;;;;;1.23;0.60;;;11.00;99.90;;;;;;5116486;28;20634;-70
2023/12/11 04:35:58;;;;;;;1.87;0.50;;;11.10;99.90;;;;;;5108342;28;20207;-71
2023/12/11 04:38:24;;;;;;;0.70;0.40;;;11.10;99.90;;;;;;5096016;28;20411;-71
2023/12/11 04:40:50;;;;;;;0.73;0.50;;;11.10;99.90;;;;;;5095941;28;20426;-71
2023/12/11 04:43:15;;;;;;;0.73;0.50;;;11.20;99.90;;;;;;5095942;28;20173;-70
2023/12/11 04:45:41;;;;;;;2.07;0.50;;;11.30;99.90;;;;;;5101847;28;20170;-71
2023/12/11 04:48:06;;;;;;;1.07;0.50;;;11.20;99.90;;;;;;5116492;28;20180;-71
2023/12/11 04:50:32;;;;;;;0.90;0.60;;;11.20;99.90;;;;;;5116067;28;20194;-70
2023/12/11 04:52:57;;;;;;;2.00;0.50;;;11.30;99.90;;;;;;5116393;28;20175;-71
2023/12/11 04:55:23;;;;;;;0.83;0.57;;;11.20;99.90;;;;;;5113053;28;20222;-70
2023/12/11 04:57:49;;;;;;;0.97;0.57;;;11.10;99.90;;;;;;5098413;28;20192;-71
2023/12/11 05:00:15;;;;;;;1.17;0.70;;;11.10;99.90;;;;;;5095526;28;20197;-71
2023/12/11 05:02:42;;;;;;;0.67;0.40;;;11.20;99.90;;;;;;5095976;28;20169;-71
2023/12/11 05:05:08;;;;;;;1.27;0.60;;;11.20;99.90;;;;;;5096396;28;20417;-71
2023/12/11 05:07:33;;;;;;;0.70;0.50;;;11.30;99.90;;;;;;5115886;28;20485;-70
2023/12/11 05:09:59;;;;;;;0.97;0.50;;;11.30;99.90;;;;;;5115757;28;20189;-71
2023/12/11 05:12:25;;;;;;;1.20;0.60;;;11.10;99.90;;;;;;5115845;28;20636;-69
2023/12/11 05:14:50;;;;;;;0.97;0.60;;;11.00;99.90;;;;;;5115701;28;20176;-70
2023/12/11 05:17:16;;;;;;;1.20;0.50;;;11.10;99.90;;;;;;5097241;28;20230;-71
2023/12/11 05:19:41;;;;;;;0.97;0.63;;;11.10;99.90;;;;;;5095014;28;20787;-72
2023/12/11 05:22:07;;;;;;;1.27;0.70;;;11.10;99.90;;;;;;5085973;28;20189;-71
2023/12/11 05:24:32;;;;;;;0.80;0.70;;;11.00;99.90;;;;;;5085553;28;20174;-71
2023/12/11 05:26:58;;;;;;;1.80;0.60;;;10.90;99.90;;;;;;5084882;28;20192;-72
2023/12/11 05:29:24;;;;;;;1.57;1.00;;;11.00;99.90;;;;;;5067155;28;20177;-71
2023/12/11 05:31:49;;;;;;;1.10;0.67;;;11.00;99.90;;;;;;5085482;28;20208;-71
2023/12/11 05:34:15;;;;;;;1.10;0.70;;;10.80;99.90;;;;;;5085130;28;20432;-71
2023/12/11 05:36:41;;;;;;;0.97;0.60;;;10.80;99.90;;;;;;5085451;28;20199;-71
2023/12/11 05:39:09;;;;;;;1.07;0.70;;;10.90;99.90;;;;;;5085368;28;20340;-70
2023/12/11 05:41:35;;;;;;;1.70;0.60;;;10.90;99.90;;;;;;5090061;28;20199;-71
2023/12/11 05:44:00;;;;;;;1.10;0.70;;;11.00;99.90;;;;;;5094937;28;20399;-71
2023/12/11 05:46:26;;;;;;;1.03;0.70;;;11.00;99.90;;;;;;5105638;28;20636;-71
2023/12/11 05:48:51;;;;;;;1.40;0.70;;;11.10;99.90;;;;;;5114288;28;20175;-71
2023/12/11 05:51:17;;;;;;;0.97;0.70;;;11.10;99.90;;;;;;5095727;28;20192;-71
2023/12/11 05:53:42;;;;;;;0.90;0.60;;;11.10;99.90;;;;;;5094585;28;20170;-70
2023/12/11 05:56:09;;;;;;;1.77;0.90;;;11.10;99.90;;;;;;5102915;28;20191;-71
2023/12/11 05:58:35;;;;;;;1.27;0.80;;;11.10;99.90;;;;;;5114909;28;20168;-70
2023/12/11 06:01:01;;;;;;;1.00;0.60;;;11.10;99.90;;;;;;5114764;28;20445;-71
2023/12/11 06:03:26;;;;;;;1.57;0.63;;;11.20;99.90;;;;;;5114888;28;20158;-71
2023/12/11 06:05:57;;;;;;;1.60;0.80;;;11.20;99.90;;;;;;5108732;28;20174;-70
2023/12/11 06:08:24;;;;;;;2.33;1.07;;;11.10;99.90;;;;;;5094641;28;20195;-70
2023/12/11 06:10:50;;;;;;;2.10;0.90;;;11.00;99.90;;;;;;5094121;28;20431;-71
2023/12/11 06:13:16;;;;;;;3.00;0.70;;;11.00;99.90;;;;;;5094303;28;20400;-71
2023/12/11 06:15:42;;;;;;;1.20;0.93;;;11.00;99.90;;;;;;5098662;28;20181;-70
2023/12/11 06:18:07;;;;;;;3.37;0.70;;;10.90;99.90;;;;;;5114449;28;20290;-71
2023/12/11 06:20:33;;;;;;;1.20;0.70;;;10.70;99.90;;;;;;5114401;28;20671;-70
2023/12/11 06:22:58;;;;;;;2.13;0.70;;;10.70;99.90;;;;;;5100396;28;20165;-71
2023/12/11 06:25:24;;;;;;;0.90;0.50;;;10.70;99.90;;;;;;5095726;28;20192;-70
2023/12/11 06:27:50;;;;;;;1.97;0.80;;;10.80;99.90;;;;;;5114172;28;20540;-71
2023/12/11 06:30:15;;;;;;;0.80;0.60;;;10.80;99.90;;;;;;5114207;28;20187;-71
2023/12/11 06:32:41;;;;;;;1.20;0.70;;;10.90;99.90;;;;;;5114590;28;20203;-71
2023/12/11 06:35:06;;;;;;;0.80;0.70;;;10.90;99.90;;;;;;5114422;28;20171;-70
2023/12/11 06:37:32;;;;;;;0.77;0.60;;;11.00;99.90;;;;;;5094294;28;20192;-70
2023/12/11 06:39:58;;;;;;;1.20;0.77;;;11.10;99.90;;;;;;5093151;28;20569;-71
2023/12/11 06:42:23;;;;;;;0.90;0.67;;;11.30;99.90;;;;;;5093885;28;20656;-70
2023/12/11 06:44:49;;;;;;;1.93;0.90;;;11.30;99.90;;;;;;5093539;28;20560;-71
2023/12/11 06:47:14;;;;;;;1.97;1.37;;;11.30;99.90;;;;;;5110695;28;20164;-71
2023/12/11 06:49:42;;;;;;;1.00;0.60;;;11.30;99.90;;;;;;5114079;28;20168;-70
2023/12/11 06:52:08;;;;;;;1.60;0.60;;;11.10;99.90;;;;;;5113700;28;20165;-71
2023/12/11 06:54:34;;;;;;;4.00;1.50;;;11.20;99.90;;;;;;5113668;28;20412;-71
2023/12/11 06:56:59;;;;;;;3.00;0.80;;;11.20;99.90;;;;;;5098917;28;20434;-71
2023/12/11 06:59:25;;;;;;;1.73;0.80;;;11.10;99.90;;;;;;5093608;28;20195;-70
2023/12/11 07:01:50;;;;;;;2.20;1.20;;;11.20;99.90;;;;;;5093169;28;20298;-71
2023/12/11 07:04:16;;;;;;;3.23;1.30;;;11.20;99.90;;;;;;5095903;28;20176;-71
2023/12/11 07:06:42;;;;;;;1.87;1.17;;;11.10;99.90;;;;;;5098170;28;20166;-71
2023/12/11 07:09:08;;;;;;;1.70;1.57;;;11.20;99.90;;;;;;5104874;28;20662;-70
2023/12/11 07:11:34;;;;;;;2.07;1.50;;;11.20;99.90;;;;;;5113495;28;20187;-71
2023/12/11 07:14:00;;;;;;;2.30;1.23;;;11.20;99.90;;;;;;5113536;28;20452;-70
2023/12/11 07:16:25;;;;;;;1.00;0.80;;;11.30;99.90;;;;;;5113259;28;20196;-70
2023/12/11 07:18:52;;;;;;;1.10;0.90;;;11.10;99.90;;;;;;5113325;28;20634;-70
2023/12/11 07:21:18;;;;;;;1.47;1.00;;;11.10;99.90;;;;;;5113225;28;20689;-70
2023/12/11 07:23:44;;;;;;;2.10;1.00;;;11.10;99.90;;;;;;5114175;28;20490;-70
2023/12/11 07:26:10;;;;;;;2.00;0.80;;;11.00;99.90;;;;;;5106119;28;20592;-70
2023/12/11 07:28:38;;;;;;;2.40;1.17;;;11.00;99.90;;;;;;5092694;28;20209;-71
2023/12/11 07:31:05;;;;;;;2.00;0.90;;;11.10;99.90;;;;;;5099229;28;20470;-71
2023/12/11 07:33:31;;;;;;;0.90;0.70;;;11.10;99.90;;;;;;5102566;28;20414;-71
2023/12/11 07:35:57;;;;;;;1.00;0.70;;;11.20;99.90;;;;;;5098438;28;20436;-71
2023/12/11 07:38:25;;;;;;;2.60;1.10;;;11.30;99.90;;;;;;5103252;28;20407;-71
2023/12/11 07:40:55;;;;;;;1.13;0.90;;;11.30;99.90;;;;;;5101545;28;20453;-71
2023/12/11 07:43:20;;;;;;;1.77;1.10;;;11.50;99.90;;;;;;5101529;28;20426;-71
2023/12/11 07:45:46;;;;;;;2.20;0.97;;;11.60;99.90;;;;;;5104449;28;20433;-71
2023/12/11 07:48:12;;;;;;;2.87;1.10;;;11.60;99.90;;;;;;5099005;28;20179;-71
2023/12/11 07:50:39;;;;;;;1.70;1.03;;;11.50;99.90;;;;;;5093950;28;20232;-71
2023/12/11 07:53:04;;;;;;;3.93;1.27;;;11.40;99.90;;;;;;5100076;28;20169;-71
2023/12/11 07:55:30;;;;;;;2.40;1.00;;;11.40;99.90;;;;;;5115710;28;20424;-71
2023/12/11 07:57:56;;;;;;;1.37;0.83;;;11.30;99.90;;;;;;5096739;28;20179;-71
2023/12/11 08:00:22;;;;;;;2.60;0.90;;;11.30;99.90;;;;;;5096501;28;20211;-71
2023/12/11 08:02:48;;;;;;;1.57;1.10;;;11.30;99.90;;;;;;5096960;28;20173;-71
2023/12/11 08:05:13;;;;;;;2.00;1.30;;;11.40;99.90;;;;;;5095547;28;20179;-71
2023/12/11 08:07:39;;;;;;;1.80;1.13;;;11.10;99.90;;;;;;5115951;28;20447;-70
2023/12/11 08:10:05;;;;;;;2.43;1.43;;;11.00;99.90;;;;;;5116785;28;20196;-70
2023/12/11 08:12:32;;;;;;;1.30;0.90;;;11.00;99.90;;;;;;5116338;28;20167;-70
2023/12/11 08:14:58;;;;;;;2.50;1.23;;;11.00;99.90;;;;;;5115456;28;20407;-71
2023/12/11 08:17:26;;;;;;;1.73;1.03;;;11.00;99.90;;;;;;5093284;28;20447;-70
2023/12/11 08:19:52;;;;;;;1.30;0.90;;;11.00;99.90;;;;;;5095314;28;20165;-70
2023/12/11 08:22:17;;;;;;;3.40;0.70;;;11.10;99.90;;;;;;5096355;28;20418;-70
2023/12/11 08:24:43;;;;;;;1.77;1.10;;;11.20;99.90;;;;;;5105753;28;20169;-70
2023/12/11 08:27:09;;;;;;;2.70;0.83;;;11.10;99.90;;;;;;5107499;28;20174;-70
2023/12/11 08:29:35;;;;;;;1.40;1.00;;;11.20;99.90;;;;;;5104817;28;20172;-70
2023/12/11 08:32:02;;;;;;;1.77;1.10;;;11.30;99.90;;;;;;5106033;28;20222;-71
2023/12/11 08:34:28;;;;;;;3.57;1.60;;;11.30;99.90;;;;;;5098512;28;20415;-70
2023/12/11 08:36:54;;;;;;;6.40;1.73;;;11.40;99.90;;;;;;5108294;28;20437;-70
2023/12/11 08:39:19;;;;;;;2.30;1.20;;;11.60;99.90;;;;;;5116803;28;20164;-70
2023/12/11 08:41:47;;;;;;;2.07;1.43;;;11.60;99.90;;;;;;5116092;28;20189;-70
2023/12/11 08:44:13;;;;;;;1.50;1.00;;;11.60;99.90;;;;;;5116099;28;20177;-70
2023/12/11 08:46:38;;;;;;;2.70;0.90;;;11.60;99.90;;;;;;5106096;28;20411;-71
2023/12/11 08:49:04;;;;;;;3.03;1.40;;;11.60;99.90;;;;;;5095711;28;20166;-70
2023/12/11 08:51:29;;;;;;;4.27;1.30;;;11.60;99.90;;;;;;5095688;28;20559;-71
2023/12/11 08:53:55;;;;;;;2.50;1.30;;;11.70;99.90;;;;;;5095678;28;20295;-70
2023/12/11 08:56:21;;;;;;;1.70;0.73;;;11.70;99.90;;;;;;5102638;28;20554;-70
2023/12/11 08:58:46;;;;;;;1.27;0.83;;;11.60;99.90;;;;;;5116056;28;20165;-70
2023/12/11 09:01:12;;;;;;;1.17;0.90;;;11.60;99.90;;;;;;5112136;28;20215;-70
2023/12/11 09:03:38;;;;;;;3.17;1.63;;;11.70;99.90;;;;;;5114763;28;20220;-70
2023/12/11 09:06:04;;;;;;;2.93;0.87;;;11.80;99.90;;;;;;5111158;28;20175;-70
2023/12/11 09:08:29;;;;;;;1.40;0.90;;;11.80;99.90;;;;;;5095328;28;20180;-70
2023/12/11 09:10:55;;;;;;;2.50;1.20;;;11.90;99.90;;;;;;5095277;28;20434;-70
2023/12/11 09:13:22;;;;;;;1.37;0.90;;;12.10;99.90;;;;;;5095133;28;20218;-70
2023/12/11 09:15:47;;;;;;;1.37;0.97;;;12.20;99.90;;;;;;5097815;28;20205;-70
2023/12/11 09:18:13;;;;;;;2.20;0.90;;;12.20;99.90;;;;;;5097325;28;20417;-71
2023/12/11 09:20:39;;;;;;;1.33;0.93;;;12.20;99.90;;;;;;5116249;28;20189;-70
2023/12/11 09:23:04;;;;;;;2.60;0.97;;;12.20;99.90;;;;;;5115694;28;20163;-70
2023/12/11 09:25:30;;;;;;;3.50;1.00;;;12.30;99.90;;;;;;5115487;28;20177;-70
2023/12/11 09:27:56;;;;;;;1.90;0.90;;;12.50;99.90;;;;;;5095307;28;20177;-71
2023/12/11 09:30:21;;;;;;;1.70;0.83;;;12.30;99.90;;;;;;5094889;28;20648;-71
2023/12/11 09:32:47;;;;;;;2.47;0.90;;;12.30;99.90;;;;;;5102200;28;20172;-70
2023/12/11 09:35:13;;;;;;;2.00;1.07;;;12.30;99.90;;;;;;5105819;28;20174;-70
2023/12/11 09:37:39;;;;;;;2.10;0.83;;;12.50;99.90;;;;;;5105768;28;20199;-70
2023/12/11 09:40:06;;;;;;;4.00;1.00;;;12.50;99.90;;;;;;5104885;28;20430;-70
2023/12/11 09:42:34;;;;;;;2.40;0.87;;;12.60;99.90;;;;;;5103392;28;20205;-70
2023/12/11 09:45:01;;;;;;;4.10;1.10;;;12.60;99.90;;;;;;5105096;28;20484;-70
2023/12/11 09:47:31;;;;;;;1.87;0.90;;;12.70;99.90;;;;;;5105393;28;20435;-70
2023/12/11 09:49:57;;;;;;;1.43;0.80;;;12.80;99.90;;;;;;5094836;28;20410;-71
2023/12/11 09:52:23;;;;;;;2.80;1.10;;;12.80;99.90;;;;;;5094929;28;20508;-71
2023/12/11 09:54:48;;;;;;;3.73;0.90;;;12.80;99.90;;;;;;5094458;28;20921;-70
2023/12/11 09:57:16;;;;;;;2.47;1.00;;;12.70;99.90;;;;;;5108409;28;20219;-70
2023/12/11 09:59:42;;;;;;;1.50;0.83;;;12.70;99.90;;;;;;5115036;28;20192;-70
2023/12/11 10:02:17;;;;;;;2.00;0.73;;;12.90;99.90;;;;;;5114000;28;20401;-70
2023/12/11 10:05:02;;;;;;;3.30;0.90;;;13.10;99.90;;;;;;5096439;28;20833;-70
2023/12/11 10:07:28;;;;;;;4.40;0.97;;;13.20;99.90;;;;;;5114758;28;20422;-70
2023/12/11 10:09:54;;;;;;;1.70;0.80;;;13.30;99.90;;;;;;5114499;28;20977;-71
2023/12/11 10:12:19;;;;;;;1.80;0.80;;;13.30;99.90;;;;;;5103486;28;20189;-71
2023/12/11 10:15:02;;;;;;;2.90;1.03;;;13.50;99.90;;;;;;5093952;28;20486;-71
2023/12/11 10:17:29;;;;;;;2.77;0.87;;;13.80;99.90;;;;;;5109665;28;20200;-70
2023/12/11 10:19:54;;;;;;;1.60;0.80;;;13.80;99.90;;;;;;5114388;28;20490;-70
2023/12/11 10:22:30;;;;;;;2.27;1.00;;;13.80;99.90;;;;;;5115405;28;20419;-73
2023/12/11 10:24:56;;;;;;;1.67;0.83;;;13.90;99.90;;;;;;5114560;28;20395;-73
2023/12/11 10:27:26;;;;;;;1.40;0.80;;;14.00;99.90;;;;;;5099613;28;20396;-73
2023/12/11 10:30:14;;;;;;;1.53;0.90;;;14.30;99.90;;;;;;5093816;28;20439;-73
2023/12/11 10:32:40;;;;;;;1.77;0.80;;;14.50;99.90;;;;;;5093739;28;20388;-72
2023/12/11 10:35:06;;;;;;;1.50;0.70;;;14.60;99.90;;;;;;5093595;28;20407;-72
2023/12/11 10:37:34;;;;;;;2.47;0.90;;;14.90;99.90;;;;;;5109223;28;20234;-72
2023/12/11 10:40:00;;;;;;;2.43;1.20;;;15.00;99.90;;;;;;5113752;28;20468;-73
2023/12/11 10:42:27;;;;;;;3.20;1.13;;;14.80;99.90;;;;;;5102132;28;20872;-73
2023/12/11 10:44:54;;;;;;;2.07;1.20;;;14.90;99.90;;;;;;5101042;28;20497;-72
2023/12/11 10:47:20;;;;;;;3.27;1.07;;;14.90;99.90;;;;;;5107370;28;20406;-73
2023/12/11 10:49:45;;;;;;;2.30;0.90;;;14.90;99.90;;;;;;5114021;28;20508;-72
2023/12/11 10:52:12;;;;;;;1.60;1.00;;;14.70;99.90;;;;;;5111984;28;20492;-73
2023/12/11 10:54:38;;;;;;;2.53;1.20;;;14.70;99.90;;;;;;5113227;28;20174;-72
2023/12/11 10:57:07;;;;;;;3.33;1.00;;;14.60;99.90;;;;;;5102131;28;20821;-73
2023/12/11 10:59:34;;;;;;;5.57;1.30;;;14.60;99.90;;;;;;5093257;28;20509;-73
2023/12/11 11:02:01;;;;;;;2.50;1.17;;;14.40;99.90;;;;;;5093481;28;20429;-72
2023/12/11 11:04:31;;;;;;;2.23;1.10;;;14.00;99.90;;;;;;5093318;28;20916;-72
2023/12/11 11:07:15;;;;;;;1.43;0.93;;;13.80;99.90;;;;;;5103454;28;20494;-73
2023/12/11 11:09:53;;;;;;;2.40;1.23;;;14.10;99.90;;;;;;5113342;28;20394;-72
2023/12/11 11:12:42;;;;;;;4.90;1.50;;;14.10;99.90;;;;;;5113341;28;20454;-73
2023/12/11 11:15:11;;;;;;;3.30;1.30;;;14.30;99.90;;;;;;5100327;28;20414;-73
2023/12/11 11:17:58;;;;;;;2.00;1.00;;;14.20;99.90;;;;;;5104211;28;20450;-73
2023/12/11 11:20:26;;;;;;;2.60;1.10;;;14.20;99.90;;;;;;5099077;28;20454;-72
2023/12/11 11:22:58;;;;;;;2.40;1.40;;;14.30;99.90;;;;;;5102449;28;20449;-73
2023/12/11 11:25:34;;;;;;;2.10;1.07;;;14.40;99.90;;;;;;5098554;28;20409;-72
2023/12/11 11:28:00;;;;;;;1.20;0.80;;;14.40;99.90;;;;;;5106186;28;20399;-73
2023/12/11 11:30:41;;;;;;;2.33;1.33;;;14.50;99.90;;;;;;5113168;28;20433;-73
2023/12/11 11:33:08;;;;;;;2.47;1.10;;;14.60;99.90;;;;;;5113117;28;20486;-72
2023/12/11 11:35:47;;;;;;;3.63;1.60;;;14.40;99.90;;;;;;5112841;28;20433;-72
2023/12/11 11:38:13;;;;;;;2.20;1.37;;;14.30;99.90;;;;;;5073457;28;20418;-73
2023/12/11 11:40:39;;;;;;;7.60;1.70;;;14.10;99.90;;;;;;5072813;28;20511;-73
2023/12/11 11:43:08;;;;;;;5.60;2.00;;;14.10;99.90;;;;;;5072540;28;20457;-72
2023/12/11 11:45:34;;;;;;;2.13;1.20;;;14.00;99.90;;;;;;5072780;28;20167;-73
2023/12/11 11:47:59;;;;;;;3.27;1.20;;;13.90;99.90;;;;;;5109337;28;20415;-72
2023/12/11 11:50:25;;;;;;;3.77;1.40;;;13.90;99.90;;;;;;5113319;28;20180;-72
2023/12/11 11:53:10;;;;;;;5.83;1.50;;;13.80;99.90;;;;;;5112879;28;20408;-73
2023/12/11 11:55:38;;;;;;;3.97;1.43;;;13.60;99.90;;;;;;5110960;28;20172;-72
2023/12/11 11:58:12;;;;;;;3.00;1.60;;;13.50;99.90;;;;;;5102704;28;20416;-73
2023/12/11 12:00:38;;;;;;;3.73;1.63;;;13.50;99.90;;;;;;5102070;28;20841;-72
2023/12/11 12:03:04;;;;;;;4.40;1.63;;;13.50;99.90;;;;;;5103606;28;20416;-72
2023/12/11 12:05:31;;;;;;;6.53;1.80;;;13.40;99.90;;;;;;5097624;28;20176;-72
2023/12/11 12:07:57;;;;;;;4.13;1.90;;;13.40;99.90;;;;;;5109763;28;20497;-72
2023/12/11 12:10:23;;;;;;;4.70;1.77;;;13.20;99.90;;;;;;5112819;28;20435;-72
2023/12/11 12:12:59;;;;;;;2.93;1.43;;;13.10;99.90;;;;;;5112603;28;20412;-73
2023/12/11 12:15:25;;;;;;;3.60;1.40;;;12.90;99.90;;;;;;5112450;28;20397;-72
2023/12/11 12:17:52;;;;;;;3.73;1.87;;;13.10;99.90;;;;;;5112369;28;20452;-72
2023/12/11 12:20:18;;;;;;;3.07;1.70;;;13.30;99.90;;;;;;5112950;28;20428;-73
2023/12/11 12:23:13;;;;;;;7.70;2.00;;;14.10;99.90;;;;;;5112739;28;20469;-73
2023/12/11 12:25:38;;;;;;;8.00;1.43;;;15.00;99.90;;;;;;5090941;28;20427;-73
2023/12/11 12:28:11;;;;;;;3.20;1.67;;;15.20;99.90;;;;;;5112581;28;20418;-72
2023/12/11 12:30:36;;;;;;;6.13;1.50;;;14.80;99.90;;;;;;5112819;28;20190;-72
2023/12/11 12:33:05;;;;;;;5.60;1.37;;;14.30;99.90;;;;;;5112633;28;20404;-72
2023/12/11 12:35:32;;;;;;;4.83;1.80;;;14.00;99.90;;;;;;5112403;28;20532;-73
2023/12/11 12:38:00;;;;;;;8.17;1.70;;;13.70;99.90;;;;;;5098351;28;20419;-72
2023/12/11 12:40:25;;;;;;;4.83;1.80;;;13.60;99.90;;;;;;5096000;28;20431;-72
2023/12/11 12:42:51;;;;;;;5.57;2.00;;;13.60;99.90;;;;;;5096324;28;20409;-73
2023/12/11 12:45:35;;;;;;;7.23;2.40;;;13.50;99.90;;;;;;5096393;28;20177;-73